sensor_id;sensor_type;location;lat;lon;timestamp;temperature;humidity
35633;DHT22;21754;48.216;-1.628;2022-09-21T00:02:23;15.60;99.90
35633;DHT22;21754;48.216;-1.628;2022-09-21T00:07:15;15.40;99.90
35633;DHT22;21754;48.216;-1.628;2022-09-21T00:09:40;15.30;99.90
35633;DHT22;21754;48.216;-1.628;2022-09-21T00:12:06;15.30;99.90
35633;DHT22;21754;48.216;-1.628;2022-09-21T00:16:58;15.30;99.90
35633;DHT22;21754;48.216;-1.628;2022-09-21T00:19:23;15.20;99.90
35633;DHT22;21754;48.216;-1.628;2022-09-21T00:21:53;15.10;99.90
35633;DHT22;21754;48.216;-1.628;2022-09-21T00:24:19;15.10;99.90
35633;DHT22;21754;48.216;-1.628;2022-09-21T00:26:44;15.00;99.90
35633;DHT22;21754;48.216;-1.628;2022-09-21T00:29:10;15.00;99.90
35633;DHT22;21754;48.216;-1.628;2022-09-21T00:31:36;15.00;99.90
35633;DHT22;21754;48.216;-1.628;2022-09-21T00:34:02;14.90;99.90
35633;DHT22;21754;48.216;-1.628;2022-09-21T00:36:28;14.90;99.90
35633;DHT22;21754;48.216;-1.628;2022-09-21T02:14:03;14.90;99.90
35633;DHT22;21754;48.216;-1.628;2022-09-21T05:51:38;14.70;99.90
35633;DHT22;21754;48.216;-1.628;2022-09-21T06:00:16;14.00;99.90
35633;DHT22;21754;48.216;-1.628;2022-09-21T06:05:15;13.90;99.90
35633;DHT22;21754;48.216;-1.628;2022-09-21T06:07:41;13.90;99.90
35633;DHT22;21754;48.216;-1.628;2022-09-21T06:10:08;13.90;99.90
35633;DHT22;21754;48.216;-1.628;2022-09-21T06:12:34;13.90;99.90
35633;DHT22;21754;48.216;-1.628;2022-09-21T06:14:59;13.90;99.90
35633;DHT22;21754;48.216;-1.628;2022-09-21T06:17:25;13.90;99.90
35633;DHT22;21754;48.216;-1.628;2022-09-21T06:19:52;14.00;99.90
35633;DHT22;21754;48.216;-1.628;2022-09-21T06:22:18;14.00;99.90
35633;DHT22;21754;48.216;-1.628;2022-09-21T06:24:44;14.00;99.90
35633;DHT22;21754;48.216;-1.628;2022-09-21T06:27:09;14.00;99.90
35633;DHT22;21754;48.216;-1.628;2022-09-21T06:29:35;14.00;99.90
35633;DHT22;21754;48.216;-1.628;2022-09-21T06:32:02;14.00;99.90
35633;DHT22;21754;48.216;-1.628;2022-09-21T06:34:28;14.00;99.90
35633;DHT22;21754;48.216;-1.628;2022-09-21T06:36:54;14.10;99.90
35633;DHT22;21754;48.216;-1.628;2022-09-21T06:39:19;14.10;99.90
35633;DHT22;21754;48.216;-1.628;2022-09-21T06:41:45;14.10;99.90
35633;DHT22;21754;48.216;-1.628;2022-09-21T06:44:11;14.10;99.90
35633;DHT22;21754;48.216;-1.628;2022-09-21T06:46:36;14.10;99.90
35633;DHT22;21754;48.216;-1.628;2022-09-21T06:49:02;14.20;99.90
35633;DHT22;21754;48.216;-1.628;2022-09-21T06:51:27;14.10;99.90
35633;DHT22;21754;48.216;-1.628;2022-09-21T06:53:55;14.20;99.90
35633;DHT22;21754;48.216;-1.628;2022-09-21T06:56:21;14.20;99.90
35633;DHT22;21754;48.216;-1.628;2022-09-21T06:58:46;14.30;99.90
35633;DHT22;21754;48.216;-1.628;2022-09-21T07:01:13;14.30;99.90
35633;DHT22;21754;48.216;-1.628;2022-09-21T07:03:40;14.40;99.90
35633;DHT22;21754;48.216;-1.628;2022-09-21T07:06:07;14.40;99.90
35633;DHT22;21754;48.216;-1.628;2022-09-21T07:08:33;14.40;99.90
35633;DHT22;21754;48.216;-1.628;2022-09-21T07:11:00;14.50;99.90
35633;DHT22;21754;48.216;-1.628;2022-09-21T07:13:27;14.60;99.90
35633;DHT22;21754;48.216;-1.628;2022-09-21T07:15:54;14.60;99.90
35633;DHT22;21754;48.216;-1.628;2022-09-21T07:18:20;14.70;99.90
35633;DHT22;21754;48.216;-1.628;2022-09-21T07:20:46;14.70;99.90
35633;DHT22;21754;48.216;-1.628;2022-09-21T07:23:16;14.80;99.90
35633;DHT22;21754;48.216;-1.628;2022-09-21T07:25:42;14.90;99.90
35633;DHT22;21754;48.216;-1.628;2022-09-21T07:28:10;15.00;99.90
35633;DHT22;21754;48.216;-1.628;2022-09-21T07:30:37;15.00;99.90
35633;DHT22;21754;48.216;-1.628;2022-09-21T07:33:03;15.10;99.90
35633;DHT22;21754;48.216;-1.628;2022-09-21T07:35:29;15.10;99.90
35633;DHT22;21754;48.216;-1.628;2022-09-21T07:38:00;15.20;99.90
35633;DHT22;21754;48.216;-1.628;2022-09-21T07:40:26;15.30;99.90
35633;DHT22;21754;48.216;-1.628;2022-09-21T07:42:52;15.30;99.90
35633;DHT22;21754;48.216;-1.628;2022-09-21T07:45:21;15.40;99.90
35633;DHT22;21754;48.216;-1.628;2022-09-21T07:47:47;15.50;99.90
35633;DHT22;21754;48.216;-1.628;2022-09-21T07:50:12;15.60;99.90
35633;DHT22;21754;48.216;-1.628;2022-09-21T07:52:38;15.60;99.90
35633;DHT22;21754;48.216;-1.628;2022-09-21T07:55:04;15.70;99.90
35633;DHT22;21754;48.216;-1.628;2022-09-21T07:57:30;15.70;99.90
35633;DHT22;21754;48.216;-1.628;2022-09-21T08:00:14;15.80;99.90
35633;DHT22;21754;48.216;-1.628;2022-09-21T08:02:40;15.90;99.90
35633;DHT22;21754;48.216;-1.628;2022-09-21T08:05:06;15.90;99.90
35633;DHT22;21754;48.216;-1.628;2022-09-21T08:07:32;15.90;99.90
35633;DHT22;21754;48.216;-1.628;2022-09-21T08:09:57;16.00;99.90
35633;DHT22;21754;48.216;-1.628;2022-09-21T08:12:23;16.10;99.90
35633;DHT22;21754;48.216;-1.628;2022-09-21T08:14:49;16.10;99.90
35633;DHT22;21754;48.216;-1.628;2022-09-21T08:17:14;16.20;99.90
35633;DHT22;21754;48.216;-1.628;2022-09-21T08:19:40;16.30;99.90
35633;DHT22;21754;48.216;-1.628;2022-09-21T08:22:06;16.30;99.90
35633;DHT22;21754;48.216;-1.628;2022-09-21T08:24:32;16.40;99.90
35633;DHT22;21754;48.216;-1.628;2022-09-21T08:26:58;16.40;99.90
35633;DHT22;21754;48.216;-1.628;2022-09-21T08:29:24;16.50;99.90
35633;DHT22;21754;48.216;-1.628;2022-09-21T08:31:51;16.60;99.90
35633;DHT22;21754;48.216;-1.628;2022-09-21T08:34:18;16.70;99.90
35633;DHT22;21754;48.216;-1.628;2022-09-21T08:36:44;16.80;99.90
35633;DHT22;21754;48.216;-1.628;2022-09-21T08:39:10;16.80;99.90
35633;DHT22;21754;48.216;-1.628;2022-09-21T09:20:38;17.00;99.90
35633;DHT22;21754;48.216;-1.628;2022-09-21T09:25:45;17.90;99.90
35633;DHT22;21754;48.216;-1.628;2022-09-21T09:31:20;18.00;99.90
35633;DHT22;21754;48.216;-1.628;2022-09-21T09:36:35;18.20;99.90
35633;DHT22;21754;48.216;-1.628;2022-09-21T09:39:08;18.30;99.90
35633;DHT22;21754;48.216;-1.628;2022-09-21T09:47:10;18.40;99.90
35633;DHT22;21754;48.216;-1.628;2022-09-21T09:50:16;18.40;99.90
35633;DHT22;21754;48.216;-1.628;2022-09-21T09:52:47;18.50;99.90
35633;DHT22;21754;48.216;-1.628;2022-09-21T09:55:25;18.60;99.90
35633;DHT22;21754;48.216;-1.628;2022-09-21T10:00:20;18.70;99.90
35633;DHT22;21754;48.216;-1.628;2022-09-21T10:02:53;19.00;99.90
35633;DHT22;21754;48.216;-1.628;2022-09-21T10:07:48;19.10;99.90
35633;DHT22;21754;48.216;-1.628;2022-09-21T10:10:44;19.20;99.90
35633;DHT22;21754;48.216;-1.628;2022-09-21T10:13:17;19.20;99.90
35633;DHT22;21754;48.216;-1.628;2022-09-21T10:23:57;19.40;99.90
35633;DHT22;21754;48.216;-1.628;2022-09-21T11:30:17;19.40;99.90
35633;DHT22;21754;48.216;-1.628;2022-09-21T11:32:55;20.70;99.90
35633;DHT22;21754;48.216;-1.628;2022-09-21T11:35:46;20.70;99.90
35633;DHT22;21754;48.216;-1.628;2022-09-21T12:18:06;21.60;99.90
35633;DHT22;21754;48.216;-1.628;2022-09-21T12:23:09;21.60;99.90
35633;DHT22;21754;48.216;-1.628;2022-09-21T12:43:36;21.80;99.90
35633;DHT22;21754;48.216;-1.628;2022-09-21T12:48:36;22.20;99.90
35633;DHT22;21754;48.216;-1.628;2022-09-21T12:51:15;22.30;99.90
35633;DHT22;21754;48.216;-1.628;2022-09-21T12:53:47;22.20;99.90
35633;DHT22;21754;48.216;-1.628;2022-09-21T14:05:38;23.20;99.90
35633;DHT22;21754;48.216;-1.628;2022-09-21T14:08:05;23.10;99.90
35633;DHT22;21754;48.216;-1.628;2022-09-21T14:10:32;23.10;99.90
35633;DHT22;21754;48.216;-1.628;2022-09-21T14:13:00;23.10;99.90
35633;DHT22;21754;48.216;-1.628;2022-09-21T14:15:38;23.20;99.90
35633;DHT22;21754;48.216;-1.628;2022-09-21T14:20:40;23.20;99.90
35633;DHT22;21754;48.216;-1.628;2022-09-21T14:23:27;23.10;99.90
35633;DHT22;21754;48.216;-1.628;2022-09-21T14:25:57;23.10;99.90
35633;DHT22;21754;48.216;-1.628;2022-09-21T14:28:38;23.00;99.90
35633;DHT22;21754;48.216;-1.628;2022-09-21T14:31:35;23.00;99.90
35633;DHT22;21754;48.216;-1.628;2022-09-21T14:39:14;23.30;99.90
35633;DHT22;21754;48.216;-1.628;2022-09-21T14:41:42;23.20;99.90
35633;DHT22;21754;48.216;-1.628;2022-09-21T14:44:28;23.30;99.90
35633;DHT22;21754;48.216;-1.628;2022-09-21T15:23:39;23.30;99.90
35633;DHT22;21754;48.216;-1.628;2022-09-21T15:26:12;23.20;99.90
35633;DHT22;21754;48.216;-1.628;2022-09-21T15:28:43;23.20;99.90
35633;DHT22;21754;48.216;-1.628;2022-09-21T15:31:15;23.20;99.90
35633;DHT22;21754;48.216;-1.628;2022-09-21T15:33:42;23.20;99.90
35633;DHT22;21754;48.216;-1.628;2022-09-21T15:36:12;23.20;99.90
35633;DHT22;21754;48.216;-1.628;2022-09-21T15:38:38;23.20;99.90
35633;DHT22;21754;48.216;-1.628;2022-09-21T15:41:04;23.30;99.90
35633;DHT22;21754;48.216;-1.628;2022-09-21T15:43:33;23.30;99.90
35633;DHT22;21754;48.216;-1.628;2022-09-21T15:46:04;23.30;99.90
35633;DHT22;21754;48.216;-1.628;2022-09-21T15:48:37;23.30;99.90
35633;DHT22;21754;48.216;-1.628;2022-09-21T15:53:40;23.30;99.90
35633;DHT22;21754;48.216;-1.628;2022-09-21T15:56:23;23.20;99.90
35633;DHT22;21754;48.216;-1.628;2022-09-21T15:58:51;23.10;99.90
35633;DHT22;21754;48.216;-1.628;2022-09-21T16:01:22;23.20;99.90
35633;DHT22;21754;48.216;-1.628;2022-09-21T16:04:01;23.30;99.90
35633;DHT22;21754;48.216;-1.628;2022-09-21T16:06:40;23.30;99.90
35633;DHT22;21754;48.216;-1.628;2022-09-21T16:11:51;23.20;99.90
35633;DHT22;21754;48.216;-1.628;2022-09-21T16:14:18;23.20;99.90
35633;DHT22;21754;48.216;-1.628;2022-09-21T16:22:14;23.20;99.90
35633;DHT22;21754;48.216;-1.628;2022-09-21T16:24:53;23.30;99.90
35633;DHT22;21754;48.216;-1.628;2022-09-21T16:27:22;23.30;99.90
35633;DHT22;21754;48.216;-1.628;2022-09-21T16:29:50;23.30;99.90
35633;DHT22;21754;48.216;-1.628;2022-09-21T16:34:43;23.40;99.90
35633;DHT22;21754;48.216;-1.628;2022-09-21T16:37:35;23.40;99.90
35633;DHT22;21754;48.216;-1.628;2022-09-21T16:40:01;23.40;99.90
35633;DHT22;21754;48.216;-1.628;2022-09-21T16:42:28;23.50;99.90
35633;DHT22;21754;48.216;-1.628;2022-09-21T16:44:57;23.40;99.90
35633;DHT22;21754;48.216;-1.628;2022-09-21T16:47:25;23.40;99.80
35633;DHT22;21754;48.216;-1.628;2022-09-21T16:49:53;23.30;99.90
35633;DHT22;21754;48.216;-1.628;2022-09-21T16:52:22;23.20;99.90
35633;DHT22;21754;48.216;-1.628;2022-09-21T16:54:48;23.20;99.90
35633;DHT22;21754;48.216;-1.628;2022-09-21T16:57:15;23.10;99.90
35633;DHT22;21754;48.216;-1.628;2022-09-21T16:59:41;23.10;99.90
35633;DHT22;21754;48.216;-1.628;2022-09-21T17:02:11;23.10;99.90
35633;DHT22;21754;48.216;-1.628;2022-09-21T17:04:39;23.10;99.90
35633;DHT22;21754;48.216;-1.628;2022-09-21T17:07:05;23.10;99.90
35633;DHT22;21754;48.216;-1.628;2022-09-21T17:09:36;23.10;99.90
35633;DHT22;21754;48.216;-1.628;2022-09-21T17:12:07;23.10;99.90
35633;DHT22;21754;48.216;-1.628;2022-09-21T17:14:35;23.00;99.90
35633;DHT22;21754;48.216;-1.628;2022-09-21T17:17:22;22.90;99.90
35633;DHT22;21754;48.216;-1.628;2022-09-21T17:19:49;22.90;99.90
35633;DHT22;21754;48.216;-1.628;2022-09-21T17:22:15;22.80;99.90
35633;DHT22;21754;48.216;-1.628;2022-09-21T17:24:51;22.80;99.90
35633;DHT22;21754;48.216;-1.628;2022-09-21T17:27:24;22.70;99.90
35633;DHT22;21754;48.216;-1.628;2022-09-21T17:29:51;22.60;99.90
35633;DHT22;21754;48.216;-1.628;2022-09-21T17:32:20;22.50;99.90
35633;DHT22;21754;48.216;-1.628;2022-09-21T17:34:59;22.40;99.90
35633;DHT22;21754;48.216;-1.628;2022-09-21T17:37:26;22.40;99.90
35633;DHT22;21754;48.216;-1.628;2022-09-21T17:39:51;22.30;99.90
35633;DHT22;21754;48.216;-1.628;2022-09-21T17:42:19;22.20;99.90
35633;DHT22;21754;48.216;-1.628;2022-09-21T17:45:32;22.10;99.90
35633;DHT22;21754;48.216;-1.628;2022-09-21T17:47:57;22.00;99.90
35633;DHT22;21754;48.216;-1.628;2022-09-21T17:50:25;21.90;99.90
35633;DHT22;21754;48.216;-1.628;2022-09-21T17:52:52;21.80;99.90
35633;DHT22;21754;48.216;-1.628;2022-09-21T17:55:49;21.80;99.90
35633;DHT22;21754;48.216;-1.628;2022-09-21T18:01:37;21.50;99.90
35633;DHT22;21754;48.216;-1.628;2022-09-21T18:04:08;21.40;99.90
35633;DHT22;21754;48.216;-1.628;2022-09-21T18:06:35;21.30;99.90
35633;DHT22;21754;48.216;-1.628;2022-09-21T18:09:02;21.20;99.90
35633;DHT22;21754;48.216;-1.628;2022-09-21T20:28:21;20.30;99.90
35633;DHT22;21754;48.216;-1.628;2022-09-21T23:37:02;18.10;99.90
35633;DHT22;21754;48.216;-1.628;2022-09-21T23:39:28;16.30;99.90
